sensor_id;sensor_type;location;lat;lon;timestamp;pressure;altitude;pressure_sealevel;temperature;humidity
37142;BME280;23041;49.816;20.092;2022-10-31T00:01:25;98081.48;;;10.52;65.38
37142;BME280;23041;49.816;20.092;2022-10-31T00:03:48;98078.19;;;10.49;65.38
37142;BME280;23041;49.816;20.092;2022-10-31T00:06:15;98070.52;;;10.40;65.39
37142;BME280;23041;49.816;20.092;2022-10-31T00:08:51;98074.70;;;10.37;65.49
37142;BME280;23041;49.816;20.092;2022-10-31T00:11:12;98072.37;;;10.35;65.55
37142;BME280;23041;49.816;20.092;2022-10-31T00:13:39;98073.86;;;10.28;65.59
37142;BME280;23041;49.816;20.092;2022-10-31T00:16:13;98070.12;;;10.15;65.73
37142;BME280;23041;49.816;20.092;2022-10-31T00:18:39;98077.05;;;10.11;65.81
37142;BME280;23041;49.816;20.092;2022-10-31T00:21:05;98076.90;;;10.22;65.87
37142;BME280;23041;49.816;20.092;2022-10-31T00:23:32;98083.39;;;10.32;65.96
37142;BME280;23041;49.816;20.092;2022-10-31T00:26:00;98084.72;;;10.23;65.97
37142;BME280;23041;49.816;20.092;2022-10-31T00:28:28;98082.86;;;10.17;66.00
37142;BME280;23041;49.816;20.092;2022-10-31T00:31:05;98088.73;;;10.15;66.03
37142;BME280;23041;49.816;20.092;2022-10-31T00:33:29;98086.64;;;10.11;66.01
37142;BME280;23041;49.816;20.092;2022-10-31T00:35:55;98086.45;;;9.99;66.01
37142;BME280;23041;49.816;20.092;2022-10-31T00:38:22;98086.08;;;9.97;65.99
37142;BME280;23041;49.816;20.092;2022-10-31T00:40:48;98073.91;;;9.86;66.05
37142;BME280;23041;49.816;20.092;2022-10-31T00:43:15;98077.98;;;9.74;66.11
37142;BME280;23041;49.816;20.092;2022-10-31T00:45:42;98078.67;;;9.82;66.17
37142;BME280;23041;49.816;20.092;2022-10-31T00:48:09;98093.63;;;9.89;66.26
37142;BME280;23041;49.816;20.092;2022-10-31T00:50:36;98084.77;;;9.93;66.31
37142;BME280;23041;49.816;20.092;2022-10-31T00:53:03;98078.88;;;9.95;66.34
37142;BME280;23041;49.816;20.092;2022-10-31T00:55:29;98085.59;;;10.02;66.39
37142;BME280;23041;49.816;20.092;2022-10-31T00:57:55;98086.94;;;10.05;66.43
37142;BME280;23041;49.816;20.092;2022-10-31T01:00:22;98090.45;;;10.06;66.44
37142;BME280;23041;49.816;20.092;2022-10-31T01:02:49;98085.97;;;10.04;66.43
37142;BME280;23041;49.816;20.092;2022-10-31T01:05:15;98090.38;;;9.98;66.44
37142;BME280;23041;49.816;20.092;2022-10-31T01:07:42;98079.28;;;9.93;66.42
37142;BME280;23041;49.816;20.092;2022-10-31T01:10:10;98076.03;;;9.75;66.45
37142;BME280;23041;49.816;20.092;2022-10-31T01:12:40;98075.13;;;9.70;66.46
37142;BME280;23041;49.816;20.092;2022-10-31T01:15:10;98082.29;;;9.75;66.44
37142;BME280;23041;49.816;20.092;2022-10-31T01:17:38;98083.59;;;9.79;66.46
37142;BME280;23041;49.816;20.092;2022-10-31T01:20:07;98083.56;;;9.82;66.45
37142;BME280;23041;49.816;20.092;2022-10-31T01:22:35;98079.08;;;9.80;66.47
37142;BME280;23041;49.816;20.092;2022-10-31T01:25:01;98076.73;;;9.79;66.48
37142;BME280;23041;49.816;20.092;2022-10-31T01:27:28;98072.00;;;9.83;66.55
37142;BME280;23041;49.816;20.092;2022-10-31T01:29:55;98072.53;;;9.86;66.61
37142;BME280;23041;49.816;20.092;2022-10-31T01:32:21;98075.34;;;9.82;66.65
37142;BME280;23041;49.816;20.092;2022-10-31T01:34:48;98072.75;;;9.83;66.69
37142;BME280;23041;49.816;20.092;2022-10-31T01:37:14;98065.94;;;9.68;66.75
37142;BME280;23041;49.816;20.092;2022-10-31T01:39:40;98068.87;;;9.69;66.79
37142;BME280;23041;49.816;20.092;2022-10-31T01:42:16;98064.69;;;9.73;66.84
37142;BME280;23041;49.816;20.092;2022-10-31T01:44:53;98069.08;;;9.82;66.84
37142;BME280;23041;49.816;20.092;2022-10-31T01:47:37;98064.09;;;9.89;66.87
37142;BME280;23041;49.816;20.092;2022-10-31T01:50:12;98059.53;;;9.90;66.91
37142;BME280;23041;49.816;20.092;2022-10-31T01:52:43;98062.94;;;9.86;66.89
37142;BME280;23041;49.816;20.092;2022-10-31T01:55:24;98063.34;;;9.84;66.90
37142;BME280;23041;49.816;20.092;2022-10-31T01:58:10;98068.05;;;9.84;66.90
37142;BME280;23041;49.816;20.092;2022-10-31T02:00:44;98064.41;;;9.79;66.88
37142;BME280;23041;49.816;20.092;2022-10-31T02:03:12;98062.14;;;9.74;66.88
37142;BME280;23041;49.816;20.092;2022-10-31T02:05:39;98062.20;;;9.70;66.87
37142;BME280;23041;49.816;20.092;2022-10-31T02:08:21;98060.67;;;9.66;66.87
37142;BME280;23041;49.816;20.092;2022-10-31T02:11:00;98052.89;;;9.49;66.89
37142;BME280;23041;49.816;20.092;2022-10-31T02:13:28;98055.23;;;9.51;66.93
37142;BME280;23041;49.816;20.092;2022-10-31T02:15:58;98051.12;;;9.51;66.97
37142;BME280;23041;49.816;20.092;2022-10-31T02:18:28;98049.09;;;9.70;67.03
37142;BME280;23041;49.816;20.092;2022-10-31T02:21:04;98049.09;;;9.70;67.03
37142;BME280;23041;49.816;20.092;2022-10-31T02:32:33;98057.59;;;9.64;67.14
37142;BME280;23041;49.816;20.092;2022-10-31T02:35:40;98059.96;;;9.62;67.19
37142;BME280;23041;49.816;20.092;2022-10-31T02:40:34;98053.58;;;9.41;67.30
37142;BME280;23041;49.816;20.092;2022-10-31T02:48:28;98074.03;;;9.49;67.47
37142;BME280;23041;49.816;20.092;2022-10-31T02:50:59;98075.50;;;9.57;67.53
37142;BME280;23041;49.816;20.092;2022-10-31T02:53:36;98075.81;;;9.62;67.61
37142;BME280;23041;49.816;20.092;2022-10-31T02:59:01;98079.86;;;9.66;67.67
37142;BME280;23041;49.816;20.092;2022-10-31T03:01:38;98081.08;;;9.65;67.69
37142;BME280;23041;49.816;20.092;2022-10-31T03:07:08;98077.46;;;9.56;67.80
37142;BME280;23041;49.816;20.092;2022-10-31T03:12:38;98078.77;;;9.75;68.00
37142;BME280;23041;49.816;20.092;2022-10-31T03:23:19;98093.02;;;10.05;67.99
37142;BME280;23041;49.816;20.092;2022-10-31T03:25:46;98094.67;;;9.99;67.92
37142;BME280;23041;49.816;20.092;2022-10-31T03:28:15;98102.87;;;9.87;67.86
37142;BME280;23041;49.816;20.092;2022-10-31T03:30:45;98094.97;;;9.77;67.80
37142;BME280;23041;49.816;20.092;2022-10-31T03:33:18;98102.66;;;9.74;67.74
37142;BME280;23041;49.816;20.092;2022-10-31T03:35:48;98095.40;;;9.61;67.76
37142;BME280;23041;49.816;20.092;2022-10-31T03:38:17;98098.64;;;9.67;67.81
37142;BME280;23041;49.816;20.092;2022-10-31T03:40:46;98104.25;;;9.72;67.85
37142;BME280;23041;49.816;20.092;2022-10-31T03:43:22;98106.27;;;9.83;67.85
37142;BME280;23041;49.816;20.092;2022-10-31T03:45:46;98107.77;;;9.88;67.86
37142;BME280;23041;49.816;20.092;2022-10-31T03:48:15;98109.63;;;9.94;67.92
37142;BME280;23041;49.816;20.092;2022-10-31T03:50:49;98110.94;;;9.98;67.95
37142;BME280;23041;49.816;20.092;2022-10-31T03:53:21;98111.13;;;9.99;68.03
37142;BME280;23041;49.816;20.092;2022-10-31T03:56:06;98112.13;;;9.97;68.06
37142;BME280;23041;49.816;20.092;2022-10-31T03:58:38;98114.92;;;9.93;68.08
37142;BME280;23041;49.816;20.092;2022-10-31T04:01:09;98101.01;;;9.80;68.15
37142;BME280;23041;49.816;20.092;2022-10-31T04:03:38;98105.24;;;9.85;68.19
37142;BME280;23041;49.816;20.092;2022-10-31T04:06:07;98108.36;;;9.87;68.22
37142;BME280;23041;49.816;20.092;2022-10-31T04:08:39;98114.17;;;10.04;68.21
37142;BME280;23041;49.816;20.092;2022-10-31T04:11:08;98108.99;;;10.10;68.21
37142;BME280;23041;49.816;20.092;2022-10-31T04:13:37;98112.04;;;10.15;68.23
37142;BME280;23041;49.816;20.092;2022-10-31T04:16:06;98108.70;;;10.16;68.23
37142;BME280;23041;49.816;20.092;2022-10-31T04:18:34;98108.52;;;10.15;68.22
37142;BME280;23041;49.816;20.092;2022-10-31T04:21:06;98106.19;;;10.13;68.21
37142;BME280;23041;49.816;20.092;2022-10-31T04:23:35;98098.55;;;10.13;68.20
37142;BME280;23041;49.816;20.092;2022-10-31T04:26:02;98095.27;;;9.98;68.22
37142;BME280;23041;49.816;20.092;2022-10-31T04:28:28;98099.38;;;9.98;68.24
37142;BME280;23041;49.816;20.092;2022-10-31T04:30:55;98104.77;;;10.05;68.25
37142;BME280;23041;49.816;20.092;2022-10-31T04:33:21;98098.50;;;10.05;68.25
37142;BME280;23041;49.816;20.092;2022-10-31T04:35:48;98110.13;;;10.01;68.23
37142;BME280;23041;49.816;20.092;2022-10-31T04:38:14;98108.67;;;9.93;68.22
37142;BME280;23041;49.816;20.092;2022-10-31T04:40:40;98103.22;;;9.89;68.21
37142;BME280;23041;49.816;20.092;2022-10-31T04:43:07;98099.42;;;9.83;68.21
37142;BME280;23041;49.816;20.092;2022-10-31T04:45:33;98104.41;;;9.76;68.23
37142;BME280;23041;49.816;20.092;2022-10-31T04:48:00;98107.77;;;9.72;68.25
37142;BME280;23041;49.816;20.092;2022-10-31T04:50:26;98097.83;;;9.55;68.32
37142;BME280;23041;49.816;20.092;2022-10-31T04:52:52;98100.53;;;9.59;68.40
37142;BME280;23041;49.816;20.092;2022-10-31T04:55:19;98104.03;;;9.59;68.47
37142;BME280;23041;49.816;20.092;2022-10-31T04:57:47;98102.75;;;9.67;68.49
37142;BME280;23041;49.816;20.092;2022-10-31T05:00:18;98104.31;;;9.68;68.51
37142;BME280;23041;49.816;20.092;2022-10-31T05:02:53;98107.27;;;9.66;68.52
37142;BME280;23041;49.816;20.092;2022-10-31T05:05:20;98104.21;;;9.60;68.53
37142;BME280;23041;49.816;20.092;2022-10-31T05:07:48;98108.59;;;9.54;68.53
37142;BME280;23041;49.816;20.092;2022-10-31T05:10:18;98107.82;;;9.54;68.57
37142;BME280;23041;49.816;20.092;2022-10-31T05:12:51;98104.64;;;9.43;68.61
37142;BME280;23041;49.816;20.092;2022-10-31T05:15:21;98085.66;;;9.29;68.64
37142;BME280;23041;49.816;20.092;2022-10-31T05:17:49;98094.73;;;9.23;68.76
37142;BME280;23041;49.816;20.092;2022-10-31T05:20:16;98102.77;;;9.22;68.82
37142;BME280;23041;49.816;20.092;2022-10-31T05:22:45;98098.46;;;9.21;68.89
37142;BME280;23041;49.816;20.092;2022-10-31T05:25:13;98108.50;;;9.31;68.95
37142;BME280;23041;49.816;20.092;2022-10-31T05:27:43;98108.02;;;9.39;68.98
37142;BME280;23041;49.816;20.092;2022-10-31T05:30:14;98111.94;;;9.38;68.98
37142;BME280;23041;49.816;20.092;2022-10-31T05:32:44;98112.75;;;9.35;69.01
37142;BME280;23041;49.816;20.092;2022-10-31T05:35:14;98114.12;;;9.35;69.01
37142;BME280;23041;49.816;20.092;2022-10-31T05:37:42;98116.97;;;9.28;69.02
37142;BME280;23041;49.816;20.092;2022-10-31T05:40:10;98124.75;;;9.30;69.04
37142;BME280;23041;49.816;20.092;2022-10-31T05:42:38;98114.20;;;9.13;69.04
37142;BME280;23041;49.816;20.092;2022-10-31T05:45:08;98120.13;;;9.08;69.13
37142;BME280;23041;49.816;20.092;2022-10-31T05:47:35;98124.53;;;9.17;69.22
37142;BME280;23041;49.816;20.092;2022-10-31T05:50:02;98125.02;;;9.24;69.30
37142;BME280;23041;49.816;20.092;2022-10-31T05:52:29;98138.48;;;9.45;69.35
37142;BME280;23041;49.816;20.092;2022-10-31T05:54:56;98141.48;;;9.54;69.33
37142;BME280;23041;49.816;20.092;2022-10-31T05:57:22;98146.61;;;9.67;69.35
37142;BME280;23041;49.816;20.092;2022-10-31T05:59:49;98145.52;;;9.76;69.32
37142;BME280;23041;49.816;20.092;2022-10-31T06:02:17;98149.52;;;9.83;69.31
37142;BME280;23041;49.816;20.092;2022-10-31T06:04:44;98159.14;;;9.95;69.30
37142;BME280;23041;49.816;20.092;2022-10-31T06:07:11;98159.95;;;10.07;69.26
37142;BME280;23041;49.816;20.092;2022-10-31T06:09:37;98154.86;;;10.25;69.24
37142;BME280;23041;49.816;20.092;2022-10-31T06:12:04;98150.78;;;10.21;69.21
37142;BME280;23041;49.816;20.092;2022-10-31T06:14:30;98154.80;;;10.40;69.18
37142;BME280;23041;49.816;20.092;2022-10-31T06:16:56;98160.71;;;10.73;69.12
37142;BME280;23041;49.816;20.092;2022-10-31T06:19:23;98164.59;;;10.87;69.03
37142;BME280;23041;49.816;20.092;2022-10-31T06:21:49;98166.80;;;11.08;68.93
37142;BME280;23041;49.816;20.092;2022-10-31T06:24:15;98166.77;;;11.39;68.83
37142;BME280;23041;49.816;20.092;2022-10-31T06:26:41;98173.23;;;11.60;68.73
37142;BME280;23041;49.816;20.092;2022-10-31T06:29:08;98166.15;;;11.91;68.62
37142;BME280;23041;49.816;20.092;2022-10-31T06:31:34;98171.66;;;12.51;68.46
37142;BME280;23041;49.816;20.092;2022-10-31T06:34:00;98173.58;;;13.07;68.43
37142;BME280;23041;49.816;20.092;2022-10-31T06:36:27;98174.63;;;13.50;68.23
37142;BME280;23041;49.816;20.092;2022-10-31T06:38:53;98172.00;;;13.80;68.00
37142;BME280;23041;49.816;20.092;2022-10-31T06:41:19;98177.11;;;13.94;67.65
37142;BME280;23041;49.816;20.092;2022-10-31T06:43:48;98182.50;;;14.44;67.34
37142;BME280;23041;49.816;20.092;2022-10-31T06:46:15;98178.09;;;14.59;66.96
37142;BME280;23041;49.816;20.092;2022-10-31T06:48:41;98178.87;;;14.59;66.56
37142;BME280;23041;49.816;20.092;2022-10-31T06:51:08;98179.41;;;14.84;66.14
37142;BME280;23041;49.816;20.092;2022-10-31T06:53:34;98181.46;;;15.40;65.76
37142;BME280;23041;49.816;20.092;2022-10-31T06:56:01;98183.30;;;16.04;65.35
37142;BME280;23041;49.816;20.092;2022-10-31T06:58:27;98181.98;;;16.97;64.98
37142;BME280;23041;49.816;20.092;2022-10-31T07:00:54;98182.47;;;18.38;64.60
37142;BME280;23041;49.816;20.092;2022-10-31T07:03:20;98183.20;;;19.86;63.96
37142;BME280;23041;49.816;20.092;2022-10-31T07:05:47;98181.46;;;21.17;62.93
37142;BME280;23041;49.816;20.092;2022-10-31T07:08:13;98180.25;;;22.47;61.63
37142;BME280;23041;49.816;20.092;2022-10-31T07:10:41;98184.20;;;24.90;58.50
37142;BME280;23041;49.816;20.092;2022-10-31T07:13:13;98184.20;;;24.90;58.50
37142;BME280;23041;49.816;20.092;2022-10-31T07:15:42;98188.94;;;25.86;56.51
37142;BME280;23041;49.816;20.092;2022-10-31T07:18:10;98184.84;;;26.82;54.57
37142;BME280;23041;49.816;20.092;2022-10-31T07:20:38;98184.75;;;27.60;52.53
37142;BME280;23041;49.816;20.092;2022-10-31T07:23:04;98186.14;;;28.49;50.66
37142;BME280;23041;49.816;20.092;2022-10-31T07:25:30;98190.92;;;29.32;48.87
37142;BME280;23041;49.816;20.092;2022-10-31T07:27:57;98191.33;;;30.16;47.06
37142;BME280;23041;49.816;20.092;2022-10-31T07:30:23;98190.70;;;30.78;45.29
37142;BME280;23041;49.816;20.092;2022-10-31T07:32:50;98190.20;;;31.44;43.69
37142;BME280;23041;49.816;20.092;2022-10-31T07:35:21;98187.76;;;32.14;42.10
37142;BME280;23041;49.816;20.092;2022-10-31T07:37:47;98188.58;;;32.98;40.61
37142;BME280;23041;49.816;20.092;2022-10-31T07:40:17;98195.50;;;33.50;39.02
37142;BME280;23041;49.816;20.092;2022-10-31T07:42:45;98197.38;;;33.86;37.60
37142;BME280;23041;49.816;20.092;2022-10-31T07:45:15;98193.37;;;34.29;36.43
37142;BME280;23041;49.816;20.092;2022-10-31T07:47:48;98199.05;;;34.95;35.30
37142;BME280;23041;49.816;20.092;2022-10-31T07:50:24;98193.47;;;35.22;34.11
37142;BME280;23041;49.816;20.092;2022-10-31T07:53:07;98194.07;;;35.55;33.13
37142;BME280;23041;49.816;20.092;2022-10-31T07:55:32;98191.77;;;36.32;32.23
37142;BME280;23041;49.816;20.092;2022-10-31T07:58:02;98184.50;;;37.04;31.19
37142;BME280;23041;49.816;20.092;2022-10-31T08:00:31;98185.38;;;37.44;30.18
37142;BME280;23041;49.816;20.092;2022-10-31T08:03:09;98184.17;;;37.95;29.33
37142;BME280;23041;49.816;20.092;2022-10-31T08:05:37;98184.12;;;38.64;28.50
37142;BME280;23041;49.816;20.092;2022-10-31T08:08:05;98194.00;;;38.83;27.52
37142;BME280;23041;49.816;20.092;2022-10-31T08:10:32;98189.06;;;39.04;26.75
37142;BME280;23041;49.816;20.092;2022-10-31T08:13:02;98186.55;;;39.20;26.11
37142;BME280;23041;49.816;20.092;2022-10-31T08:15:30;98190.78;;;39.62;25.52
37142;BME280;23041;49.816;20.092;2022-10-31T08:17:57;98190.60;;;39.91;24.82
37142;BME280;23041;49.816;20.092;2022-10-31T08:20:24;98187.63;;;40.69;24.41
37142;BME280;23041;49.816;20.092;2022-10-31T08:22:55;98193.16;;;41.37;23.81
37142;BME280;23041;49.816;20.092;2022-10-31T08:25:30;98192.73;;;41.91;23.21
37142;BME280;23041;49.816;20.092;2022-10-31T08:27:58;98201.81;;;42.63;22.57
37142;BME280;23041;49.816;20.092;2022-10-31T08:30:26;98195.54;;;43.08;21.92
37142;BME280;23041;49.816;20.092;2022-10-31T08:32:59;98193.52;;;43.52;21.31
37142;BME280;23041;49.816;20.092;2022-10-31T08:35:32;98197.72;;;44.08;20.85
37142;BME280;23041;49.816;20.092;2022-10-31T08:37:58;98202.30;;;44.59;20.40
37142;BME280;23041;49.816;20.092;2022-10-31T08:40:26;98200.48;;;44.83;19.94
37142;BME280;23041;49.816;20.092;2022-10-31T08:43:02;98195.55;;;45.02;19.76
37142;BME280;23041;49.816;20.092;2022-10-31T08:45:31;98194.05;;;45.33;19.33
37142;BME280;23041;49.816;20.092;2022-10-31T08:48:03;98194.75;;;45.49;18.76
37142;BME280;23041;49.816;20.092;2022-10-31T08:50:33;98188.58;;;45.93;18.46
37142;BME280;23041;49.816;20.092;2022-10-31T08:53:10;98187.84;;;46.28;18.00
37142;BME280;23041;49.816;20.092;2022-10-31T08:55:36;98188.64;;;46.50;17.73
37142;BME280;23041;49.816;20.092;2022-10-31T08:58:05;98192.66;;;46.79;17.34
37142;BME280;23041;49.816;20.092;2022-10-31T09:00:34;98186.30;;;47.03;16.91
37142;BME280;23041;49.816;20.092;2022-10-31T09:03:04;98182.61;;;47.02;16.55
37142;BME280;23041;49.816;20.092;2022-10-31T09:05:32;98187.11;;;47.27;16.36
37142;BME280;23041;49.816;20.092;2022-10-31T09:08:00;98192.01;;;47.21;16.04
37142;BME280;23041;49.816;20.092;2022-10-31T09:10:28;98190.17;;;47.52;15.76
37142;BME280;23041;49.816;20.092;2022-10-31T09:12:58;98198.50;;;48.05;15.46
37142;BME280;23041;49.816;20.092;2022-10-31T09:15:27;98191.58;;;48.39;15.05
37142;BME280;23041;49.816;20.092;2022-10-31T09:17:53;98193.76;;;48.64;14.78
37142;BME280;23041;49.816;20.092;2022-10-31T09:20:20;98195.92;;;49.13;14.59
37142;BME280;23041;49.816;20.092;2022-10-31T09:22:47;98189.86;;;49.06;14.33
37142;BME280;23041;49.816;20.092;2022-10-31T09:25:13;98189.77;;;49.29;14.27
37142;BME280;23041;49.816;20.092;2022-10-31T09:27:39;98195.42;;;49.77;14.06
37142;BME280;23041;49.816;20.092;2022-10-31T09:30:07;98191.19;;;50.13;13.79
37142;BME280;23041;49.816;20.092;2022-10-31T09:32:33;98184.24;;;50.30;13.51
37142;BME280;23041;49.816;20.092;2022-10-31T09:35:00;98187.72;;;50.53;13.21
37142;BME280;23041;49.816;20.092;2022-10-31T09:37:26;98189.45;;;50.67;12.97
37142;BME280;23041;49.816;20.092;2022-10-31T09:39:52;98188.50;;;50.91;12.73
37142;BME280;23041;49.816;20.092;2022-10-31T09:45:31;98189.75;;;50.80;12.49
37142;BME280;23041;49.816;20.092;2022-10-31T09:50:57;98195.83;;;51.29;12.01
37142;BME280;23041;49.816;20.092;2022-10-31T09:56:37;98183.80;;;51.12;11.73
37142;BME280;23041;49.816;20.092;2022-10-31T09:59:05;98183.34;;;51.27;11.44
37142;BME280;23041;49.816;20.092;2022-10-31T10:01:55;98187.36;;;49.77;11.32
37142;BME280;23041;49.816;20.092;2022-10-31T10:04:46;98194.94;;;50.50;11.69
37142;BME280;23041;49.816;20.092;2022-10-31T10:07:27;98187.77;;;49.92;11.24
37142;BME280;23041;49.816;20.092;2022-10-31T10:10:10;98187.77;;;49.92;11.24
37142;BME280;23041;49.816;20.092;2022-10-31T10:27:03;98177.03;;;43.84;13.06
37142;BME280;23041;49.816;20.092;2022-10-31T10:29:33;98172.81;;;43.43;13.51
37142;BME280;23041;49.816;20.092;2022-10-31T10:32:26;98173.45;;;43.56;13.83
37142;BME280;23041;49.816;20.092;2022-10-31T10:35:02;98178.77;;;43.76;14.00
37142;BME280;23041;49.816;20.092;2022-10-31T10:37:42;98173.73;;;44.36;13.88
37142;BME280;23041;49.816;20.092;2022-10-31T10:40:21;98162.52;;;43.98;13.91
37142;BME280;23041;49.816;20.092;2022-10-31T10:43:19;98168.05;;;44.38;13.86
37142;BME280;23041;49.816;20.092;2022-10-31T10:48:59;98166.04;;;43.38;14.19
37142;BME280;23041;49.816;20.092;2022-10-31T10:51:47;98175.75;;;44.80;13.90
37142;BME280;23041;49.816;20.092;2022-10-31T10:57:42;98167.88;;;45.31;13.34
37142;BME280;23041;49.816;20.092;2022-10-31T11:00:46;98172.15;;;45.46;13.15
37142;BME280;23041;49.816;20.092;2022-10-31T11:03:13;98163.94;;;46.11;12.96
37142;BME280;23041;49.816;20.092;2022-10-31T11:08:32;98165.99;;;44.72;13.19
37142;BME280;23041;49.816;20.092;2022-10-31T11:11:18;98165.36;;;44.90;13.35
37142;BME280;23041;49.816;20.092;2022-10-31T11:13:40;98167.05;;;46.35;13.21
37142;BME280;23041;49.816;20.092;2022-10-31T11:16:27;98163.27;;;47.09;12.96
37142;BME280;23041;49.816;20.092;2022-10-31T11:21:41;98157.84;;;46.80;12.62
37142;BME280;23041;49.816;20.092;2022-10-31T11:24:13;98153.97;;;46.16;12.45
37142;BME280;23041;49.816;20.092;2022-10-31T11:26:47;98158.73;;;45.38;12.58
37142;BME280;23041;49.816;20.092;2022-10-31T11:29:23;98153.27;;;45.63;12.75
37142;BME280;23041;49.816;20.092;2022-10-31T11:31:57;98154.03;;;45.30;12.81
37142;BME280;23041;49.816;20.092;2022-10-31T11:34:26;98155.23;;;46.11;12.80
37142;BME280;23041;49.816;20.092;2022-10-31T11:37:13;98158.67;;;46.83;12.59
37142;BME280;23041;49.816;20.092;2022-10-31T11:39:48;98150.84;;;46.87;13.19
37142;BME280;23041;49.816;20.092;2022-10-31T11:42:22;98151.30;;;47.41;12.31
37142;BME280;23041;49.816;20.092;2022-10-31T11:44:58;98151.30;;;47.41;12.31
37142;BME280;23041;49.816;20.092;2022-10-31T11:47:26;98149.27;;;47.45;12.00
37142;BME280;23041;49.816;20.092;2022-10-31T11:49:57;98152.96;;;46.86;12.02
37142;BME280;23041;49.816;20.092;2022-10-31T11:52:30;98157.52;;;45.96;12.27
37142;BME280;23041;49.816;20.092;2022-10-31T11:55:13;98154.42;;;46.27;12.29
37142;BME280;23041;49.816;20.092;2022-10-31T11:57:46;98156.44;;;45.35;12.30
37142;BME280;23041;49.816;20.092;2022-10-31T12:06:07;98148.95;;;44.48;13.17
37142;BME280;23041;49.816;20.092;2022-10-31T12:08:38;98147.75;;;45.35;13.03
37142;BME280;23041;49.816;20.092;2022-10-31T12:14:32;98142.98;;;46.51;12.64
37142;BME280;23041;49.816;20.092;2022-10-31T12:17:06;98146.63;;;46.14;12.60
37142;BME280;23041;49.816;20.092;2022-10-31T12:19:59;98143.45;;;46.07;12.38
37142;BME280;23041;49.816;20.092;2022-10-31T12:28:41;98142.27;;;44.60;13.24
37142;BME280;23041;49.816;20.092;2022-10-31T12:54:47;98133.41;;;42.93;13.69
37142;BME280;23041;49.816;20.092;2022-10-31T12:57:11;98131.28;;;43.65;14.06
37142;BME280;23041;49.816;20.092;2022-10-31T13:00:00;98131.28;;;43.65;14.06
37142;BME280;23041;49.816;20.092;2022-10-31T13:02:39;98128.33;;;42.93;13.88
37142;BME280;23041;49.816;20.092;2022-10-31T13:16:16;98123.23;;;36.15;17.29
37142;BME280;23041;49.816;20.092;2022-10-31T13:21:21;98118.56;;;35.22;18.36
37142;BME280;23041;49.816;20.092;2022-10-31T13:23:50;98122.49;;;34.67;19.01
37142;BME280;23041;49.816;20.092;2022-10-31T13:26:47;98114.10;;;33.94;19.59
37142;BME280;23041;49.816;20.092;2022-10-31T13:32:00;98117.94;;;33.10;20.88
37142;BME280;23041;49.816;20.092;2022-10-31T13:34:35;98114.86;;;32.92;21.28
37142;BME280;23041;49.816;20.092;2022-10-31T13:45:24;98109.14;;;33.39;21.70
37142;BME280;23041;49.816;20.092;2022-10-31T13:51:03;98103.91;;;32.43;22.41
37142;BME280;23041;49.816;20.092;2022-10-31T13:53:42;98108.92;;;32.74;22.56
37142;BME280;23041;49.816;20.092;2022-10-31T13:56:32;98108.45;;;33.23;22.47
37142;BME280;23041;49.816;20.092;2022-10-31T13:59:15;98103.19;;;32.97;22.60
37142;BME280;23041;49.816;20.092;2022-10-31T14:01:35;98100.55;;;32.91;22.66
37142;BME280;23041;49.816;20.092;2022-10-31T14:09:29;98104.94;;;33.87;22.84
37142;BME280;23041;49.816;20.092;2022-10-31T14:12:07;98108.54;;;33.88;22.93
37142;BME280;23041;49.816;20.092;2022-10-31T14:14:43;98103.42;;;33.70;22.84
37142;BME280;23041;49.816;20.092;2022-10-31T14:17:18;98108.55;;;33.64;22.87
37142;BME280;23041;49.816;20.092;2022-10-31T14:19:58;98105.10;;;33.49;23.00
37142;BME280;23041;49.816;20.092;2022-10-31T14:22:31;98107.41;;;33.19;23.21
37142;BME280;23041;49.816;20.092;2022-10-31T14:24:58;98101.11;;;32.90;23.50
37142;BME280;23041;49.816;20.092;2022-10-31T14:30:07;98098.59;;;31.72;23.76
37142;BME280;23041;49.816;20.092;2022-10-31T14:32:28;98103.17;;;30.67;24.01
37142;BME280;23041;49.816;20.092;2022-10-31T14:34:56;98100.58;;;29.26;24.64
37142;BME280;23041;49.816;20.092;2022-10-31T14:49:09;98107.73;;;26.07;28.49
37142;BME280;23041;49.816;20.092;2022-10-31T14:51:39;98101.98;;;25.47;29.35
37142;BME280;23041;49.816;20.092;2022-10-31T14:54:23;98111.58;;;24.81;30.07
37142;BME280;23041;49.816;20.092;2022-10-31T14:56:50;98107.36;;;24.30;30.77
37142;BME280;23041;49.816;20.092;2022-10-31T14:59:22;98109.48;;;23.75;31.46
37142;BME280;23041;49.816;20.092;2022-10-31T15:01:59;98104.14;;;23.28;32.13
37142;BME280;23041;49.816;20.092;2022-10-31T15:04:30;98104.12;;;22.69;32.81
37142;BME280;23041;49.816;20.092;2022-10-31T15:07:09;98108.13;;;22.20;33.55
37142;BME280;23041;49.816;20.092;2022-10-31T15:09:55;98104.43;;;21.77;34.24
37142;BME280;23041;49.816;20.092;2022-10-31T15:12:28;98111.12;;;21.23;34.97
37142;BME280;23041;49.816;20.092;2022-10-31T15:14:57;98111.52;;;21.06;35.64
37142;BME280;23041;49.816;20.092;2022-10-31T15:17:27;98116.40;;;20.81;36.24
37142;BME280;23041;49.816;20.092;2022-10-31T15:19:53;98118.80;;;20.43;36.77
37142;BME280;23041;49.816;20.092;2022-10-31T15:22:23;98114.47;;;20.27;37.32
37142;BME280;23041;49.816;20.092;2022-10-31T15:24:50;98113.98;;;20.04;37.80
37142;BME280;23041;49.816;20.092;2022-10-31T15:27:22;98120.38;;;19.85;38.25
37142;BME280;23041;49.816;20.092;2022-10-31T15:29:54;98122.66;;;19.76;38.69
37142;BME280;23041;49.816;20.092;2022-10-31T15:32:28;98120.15;;;19.64;38.99
37142;BME280;23041;49.816;20.092;2022-10-31T15:34:56;98122.73;;;19.52;39.33
37142;BME280;23041;49.816;20.092;2022-10-31T15:37:24;98124.66;;;19.42;39.68
37142;BME280;23041;49.816;20.092;2022-10-31T15:39:52;98126.83;;;19.23;39.93
37142;BME280;23041;49.816;20.092;2022-10-31T15:42:24;98129.76;;;19.05;40.16
37142;BME280;23041;49.816;20.092;2022-10-31T15:45:05;98125.75;;;18.82;40.41
37142;BME280;23041;49.816;20.092;2022-10-31T15:47:34;98123.86;;;18.60;40.66